sensor_id;sensor_type;location;lat;lon;timestamp;pressure;altitude;pressure_sealevel;temperature;humidity
53089;BME280;38968;47.696;17.540;2022-09-09T00:00:18;10013180.0;;;21.25;59.73438
53089;BME280;38968;47.696;17.540;2022-09-09T00:05:29;10012310.0;;;21.22;59.75488
53089;BME280;38968;47.696;17.540;2022-09-09T00:10:36;10012530.0;;;21.31;59.89551
53089;BME280;38968;47.696;17.540;2022-09-09T00:15:20;10013370.0;;;21.23;59.33301
53089;BME280;38968;47.696;17.540;2022-09-09T00:20:36;10012720.0;;;21.13;58.5918
53089;BME280;38968;47.696;17.540;2022-09-09T00:25:33;10013300.0;;;21.2;59.09375
53089;BME280;38968;47.696;17.540;2022-09-09T00:30:27;10013910.0;;;21.22;58.76855
53089;BME280;38968;47.696;17.540;2022-09-09T00:35:18;10014190.0;;;21.04;58.78027
53089;BME280;38968;47.696;17.540;2022-09-09T00:45:44;10014430.0;;;20.44;59.9668
53089;BME280;38968;47.696;17.540;2022-09-09T00:50:20;10014660.0;;;20.19;60.88184
53089;BME280;38968;47.696;17.540;2022-09-09T01:00:35;10014520.0;;;20.27;60.12012
53089;BME280;38968;47.696;17.540;2022-09-09T01:05:20;10014440.0;;;20.1;61.31348
53089;BME280;38968;47.696;17.540;2022-09-09T01:10:29;10014660.0;;;20.35;60.63379
53089;BME280;38968;47.696;17.540;2022-09-09T01:15:24;10016000.0;;;20.17;60.28125
53089;BME280;38968;47.696;17.540;2022-09-09T01:20:55;10016670.0;;;20.07;60.95898
53089;BME280;38968;47.696;17.540;2022-09-09T01:30:17;10017940.0;;;19.66;62.0127
53089;BME280;38968;47.696;17.540;2022-09-09T01:35:42;10018150.0;;;19.61;62.65039
53089;BME280;38968;47.696;17.540;2022-09-09T01:40:16;10018970.0;;;19.72;62.04492
53089;BME280;38968;47.696;17.540;2022-09-09T01:45:16;10020090.0;;;19.79;62.08984
53089;BME280;38968;47.696;17.540;2022-09-09T01:50:16;10019490.0;;;19.56;62.38672
53089;BME280;38968;47.696;17.540;2022-09-09T01:55:16;10018790.0;;;19.72;62.11621
53089;BME280;38968;47.696;17.540;2022-09-09T02:00:16;10018640.0;;;19.67;62.45996
53089;BME280;38968;47.696;17.540;2022-09-09T02:10:24;10017600.0;;;19.98;61.29785
53089;BME280;38968;47.696;17.540;2022-09-09T02:15:30;10018560.0;;;20.01;61.38379
53089;BME280;38968;47.696;17.540;2022-09-09T02:20:17;10017780.0;;;19.81;61.30859
53089;BME280;38968;47.696;17.540;2022-09-09T02:25:17;10018030.0;;;19.66;61.40625
53089;BME280;38968;47.696;17.540;2022-09-09T02:30:16;10017720.0;;;19.58;61.47754
53089;BME280;38968;47.696;17.540;2022-09-09T02:35:19;10018900.0;;;19.51;62.0166
53089;BME280;38968;47.696;17.540;2022-09-09T02:40:17;10018240.0;;;19.41;61.81543
53089;BME280;38968;47.696;17.540;2022-09-09T02:45:18;10017430.0;;;19.45;62.23145
53089;BME280;38968;47.696;17.540;2022-09-09T02:50:21;10017500.0;;;19.11;63.52441
53089;BME280;38968;47.696;17.540;2022-09-09T02:55:41;10017380.0;;;19.37;63.31738
53089;BME280;38968;47.696;17.540;2022-09-09T03:00:22;10016450.0;;;19.46;62.61719
53089;BME280;38968;47.696;17.540;2022-09-09T03:05:16;10016690.0;;;19.51;62.03906
53089;BME280;38968;47.696;17.540;2022-09-09T03:10:16;10016140.0;;;19.55;61.44922
53089;BME280;38968;47.696;17.540;2022-09-09T03:15:16;10016390.0;;;19.58;61.12695
53089;BME280;38968;47.696;17.540;2022-09-09T03:20:16;10016750.0;;;19.57;61.08887
53089;BME280;38968;47.696;17.540;2022-09-09T03:25:16;10015870.0;;;19.55;61.23828
53089;BME280;38968;47.696;17.540;2022-09-09T03:30:16;10015360.0;;;19.51;61.47754
53089;BME280;38968;47.696;17.540;2022-09-09T03:35:16;10015750.0;;;19.28;61.04883
53089;BME280;38968;47.696;17.540;2022-09-09T03:40:16;10015970.0;;;19.01;62.43555
53089;BME280;38968;47.696;17.540;2022-09-09T03:45:16;10016070.0;;;18.98;62.375
53089;BME280;38968;47.696;17.540;2022-09-09T03:50:16;10017470.0;;;18.81;63.14355
53089;BME280;38968;47.696;17.540;2022-09-09T03:55:16;10018040.0;;;18.72;63.71484
53089;BME280;38968;47.696;17.540;2022-09-09T04:00:16;10018510.0;;;18.67;63.3584
53089;BME280;38968;47.696;17.540;2022-09-09T04:05:16;10019630.0;;;18.74;63.30859
53089;BME280;38968;47.696;17.540;2022-09-09T04:10:16;10019420.0;;;18.61;63.32617
53089;BME280;38968;47.696;17.540;2022-09-09T04:15:16;10019690.0;;;18.58;63.96289
53089;BME280;38968;47.696;17.540;2022-09-09T04:20:16;10020770.0;;;18.74;63.9043
53089;BME280;38968;47.696;17.540;2022-09-09T04:25:16;10020980.0;;;18.67;63.54395
53089;BME280;38968;47.696;17.540;2022-09-09T04:30:16;10021670.0;;;18.7;63.78125
53089;BME280;38968;47.696;17.540;2022-09-09T04:35:16;10022160.0;;;18.59;64.43066
53089;BME280;38968;47.696;17.540;2022-09-09T04:40:16;10021620.0;;;18.62;63.82813
53089;BME280;38968;47.696;17.540;2022-09-09T04:45:16;10021460.0;;;18.78;64.0957
53089;BME280;38968;47.696;17.540;2022-09-09T04:50:16;10021170.0;;;19.02;63.44238
53089;BME280;38968;47.696;17.540;2022-09-09T04:55:16;10020750.0;;;18.98;63.2959
53089;BME280;38968;47.696;17.540;2022-09-09T05:00:16;10021050.0;;;19.09;63.17188
53089;BME280;38968;47.696;17.540;2022-09-09T05:05:16;10021870.0;;;19.03;63.38477
53089;BME280;38968;47.696;17.540;2022-09-09T05:10:16;10021830.0;;;18.55;64.44727
53089;BME280;38968;47.696;17.540;2022-09-09T05:15:16;10021110.0;;;18.78;63.96777
53089;BME280;38968;47.696;17.540;2022-09-09T05:20:16;10022160.0;;;19;63.35742
53089;BME280;38968;47.696;17.540;2022-09-09T05:25:16;10020520.0;;;19.09;62.97363
53089;BME280;38968;47.696;17.540;2022-09-09T05:30:16;10019700.0;;;19.13;63.59863
53089;BME280;38968;47.696;17.540;2022-09-09T05:35:16;10020050.0;;;19.15;63.24023
53089;BME280;38968;47.696;17.540;2022-09-09T05:40:16;10021070.0;;;19.23;62.5498
53089;BME280;38968;47.696;17.540;2022-09-09T05:45:16;10022270.0;;;18.94;63.48926
53089;BME280;38968;47.696;17.540;2022-09-09T05:50:16;10019510.0;;;19.17;63.5332
53089;BME280;38968;47.696;17.540;2022-09-09T05:55:16;10019170.0;;;19.49;62.85547
53089;BME280;38968;47.696;17.540;2022-09-09T06:00:16;10018880.0;;;19.73;62.91309
53089;BME280;38968;47.696;17.540;2022-09-09T06:05:17;10020290.0;;;19.91;62.37598
53089;BME280;38968;47.696;17.540;2022-09-09T06:10:16;10020110.0;;;19.91;61.93164
53089;BME280;38968;47.696;17.540;2022-09-09T06:15:16;10019630.0;;;19.99;61.74512
53089;BME280;38968;47.696;17.540;2022-09-09T06:20:16;10020660.0;;;20.23;61.08594
53089;BME280;38968;47.696;17.540;2022-09-09T06:25:17;10020740.0;;;20.39;61.03809
53089;BME280;38968;47.696;17.540;2022-09-09T06:30:16;10020690.0;;;20.67;60.08008
53089;BME280;38968;47.696;17.540;2022-09-09T06:35:17;10021130.0;;;20.84;59.86816
53089;BME280;38968;47.696;17.540;2022-09-09T06:40:16;10021660.0;;;21.16;58.38379
53089;BME280;38968;47.696;17.540;2022-09-09T06:45:17;10020660.0;;;21.37;59.12695
53089;BME280;38968;47.696;17.540;2022-09-09T06:50:16;10020350.0;;;21.73;58.77637
53089;BME280;38968;47.696;17.540;2022-09-09T06:55:17;10021510.0;;;21.87;57.36035
53089;BME280;38968;47.696;17.540;2022-09-09T07:00:17;10021780.0;;;22.18;55.82031
53089;BME280;38968;47.696;17.540;2022-09-09T07:05:17;10021240.0;;;22.46;55.12598
53089;BME280;38968;47.696;17.540;2022-09-09T07:10:17;10020900.0;;;22.44;54.65137
53089;BME280;38968;47.696;17.540;2022-09-09T07:15:17;10021870.0;;;22.89;53.86914
53089;BME280;38968;47.696;17.540;2022-09-09T07:20:17;10021850.0;;;23.19;53.95215
53089;BME280;38968;47.696;17.540;2022-09-09T07:25:16;10022140.0;;;23.43;52.88184
53089;BME280;38968;47.696;17.540;2022-09-09T07:30:17;10021830.0;;;23.08;53.71387
53089;BME280;38968;47.696;17.540;2022-09-09T07:35:16;10021000.0;;;23.81;52.73633
53089;BME280;38968;47.696;17.540;2022-09-09T07:40:17;10020490.0;;;24.04;51.60254
53089;BME280;38968;47.696;17.540;2022-09-09T07:45:17;10019570.0;;;24.33;50.36719
53089;BME280;38968;47.696;17.540;2022-09-09T07:50:17;10020040.0;;;24.17;50.34961
53089;BME280;38968;47.696;17.540;2022-09-09T07:55:17;10019150.0;;;24.43;49.78613
53089;BME280;38968;47.696;17.540;2022-09-09T08:00:17;10019420.0;;;25.04;49.61523
53089;BME280;38968;47.696;17.540;2022-09-09T08:05:18;10019090.0;;;24.75;47.95605
53089;BME280;38968;47.696;17.540;2022-09-09T08:10:17;10019720.0;;;24.63;48.58496
53089;BME280;38968;47.696;17.540;2022-09-09T08:15:17;10019470.0;;;24.85;47.93164
53089;BME280;38968;47.696;17.540;2022-09-09T08:20:17;10019070.0;;;25.4;47.84766
53089;BME280;38968;47.696;17.540;2022-09-09T08:25:16;10019890.0;;;25.5;46.16797
53089;BME280;38968;47.696;17.540;2022-09-09T08:30:16;10020290.0;;;25.55;44.42383
53089;BME280;38968;47.696;17.540;2022-09-09T08:35:17;10020840.0;;;25.89;44.11133
53089;BME280;38968;47.696;17.540;2022-09-09T08:40:19;10020640.0;;;26.04;42.89746
53089;BME280;38968;47.696;17.540;2022-09-09T08:45:24;10019680.0;;;26.24;42.74902
53089;BME280;38968;47.696;17.540;2022-09-09T08:50:25;10019330.0;;;26.46;41.16992
53089;BME280;38968;47.696;17.540;2022-09-09T08:55:39;10020400.0;;;26.57;41.53809
53089;BME280;38968;47.696;17.540;2022-09-09T09:00:17;10019300.0;;;26.6;40.19043
53089;BME280;38968;47.696;17.540;2022-09-09T09:05:37;10018480.0;;;26.74;39.43848
53089;BME280;38968;47.696;17.540;2022-09-09T09:15:19;10018860.0;;;27.26;39.9502
53089;BME280;38968;47.696;17.540;2022-09-09T09:20:18;10017510.0;;;27.17;40.00195
53089;BME280;38968;47.696;17.540;2022-09-09T09:25:23;10018070.0;;;27.02;41.84277
53089;BME280;38968;47.696;17.540;2022-09-09T09:30:21;10017660.0;;;27.62;40.50977
53089;BME280;38968;47.696;17.540;2022-09-09T09:35:17;10017150.0;;;27.8;40.75391
53089;BME280;38968;47.696;17.540;2022-09-09T09:40:20;10017360.0;;;27.77;39.93457
53089;BME280;38968;47.696;17.540;2022-09-09T09:45:25;10016930.0;;;27.64;40.79883
53089;BME280;38968;47.696;17.540;2022-09-09T09:50:19;10016870.0;;;27.82;40.53906
53089;BME280;38968;47.696;17.540;2022-09-09T09:55:17;10016660.0;;;27.85;40.02637
53089;BME280;38968;47.696;17.540;2022-09-09T10:00:19;10016500.0;;;27.83;39.38965
53089;BME280;38968;47.696;17.540;2022-09-09T10:05:19;10015920.0;;;28.29;38.24121
53089;BME280;38968;47.696;17.540;2022-09-09T10:10:20;10015430.0;;;28.44;35.81543
53089;BME280;38968;47.696;17.540;2022-09-09T10:30:18;10014870.0;;;30.6;32.91797
53089;BME280;38968;47.696;17.540;2022-09-09T10:35:27;10014820.0;;;30.74;32.20313
53089;BME280;38968;47.696;17.540;2022-09-09T10:40:34;10014740.0;;;31;30.69629
53089;BME280;38968;47.696;17.540;2022-09-09T10:45:18;10013820.0;;;31.2;30.66211
53089;BME280;38968;47.696;17.540;2022-09-09T10:55:19;10013810.0;;;30.94;30.72949
53089;BME280;38968;47.696;17.540;2022-09-09T11:00:19;10014070.0;;;30.86;30.72363
53089;BME280;38968;47.696;17.540;2022-09-09T11:10:24;10013000.0;;;30.49;32.84961
53089;BME280;38968;47.696;17.540;2022-09-09T11:15:23;10012780.0;;;31.61;30.51953
53089;BME280;38968;47.696;17.540;2022-09-09T11:20:17;10013070.0;;;31.94;29.21875
53089;BME280;38968;47.696;17.540;2022-09-09T11:25:29;10012890.0;;;32.28;28.01465
53089;BME280;38968;47.696;17.540;2022-09-09T11:40:21;10011600.0;;;31.26;31.9248
53089;BME280;38968;47.696;17.540;2022-09-09T11:45:27;10010820.0;;;32.37;28.44531
53089;BME280;38968;47.696;17.540;2022-09-09T11:55:30;10010710.0;;;31.52;29.17969
53089;BME280;38968;47.696;17.540;2022-09-09T12:00:36;10010050.0;;;31.98;28.33594
53089;BME280;38968;47.696;17.540;2022-09-09T12:05:18;10008860.0;;;32.17;28.18945
53089;BME280;38968;47.696;17.540;2022-09-09T12:10:30;10008310.0;;;32.69;27.21289
53089;BME280;38968;47.696;17.540;2022-09-09T12:15:28;10007370.0;;;33.14;26.65527
53089;BME280;38968;47.696;17.540;2022-09-09T12:20:30;10006860.0;;;33.03;25.01758
53089;BME280;38968;47.696;17.540;2022-09-09T12:25:29;10006590.0;;;33.35;25.02344
53089;BME280;38968;47.696;17.540;2022-09-09T12:30:17;10006170.0;;;33.25;24.72461
53089;BME280;38968;47.696;17.540;2022-09-09T12:35:26;10005550.0;;;33.55;25.94824
53089;BME280;38968;47.696;17.540;2022-09-09T12:40:30;10006080.0;;;32.91;25.57129
53089;BME280;38968;47.696;17.540;2022-09-09T12:45:23;10005060.0;;;33.59;24.84082
53089;BME280;38968;47.696;17.540;2022-09-09T12:50:24;10005060.0;;;32.93;24.78125
53089;BME280;38968;47.696;17.540;2022-09-09T12:55:19;10004340.0;;;32.52;26.50977
53089;BME280;38968;47.696;17.540;2022-09-09T13:00:19;10002720.0;;;32.6;26.07617
53089;BME280;38968;47.696;17.540;2022-09-09T13:05:19;10002270.0;;;33.17;25.25684
53089;BME280;38968;47.696;17.540;2022-09-09T13:10:24;10002860.0;;;32.56;25.84277
53089;BME280;38968;47.696;17.540;2022-09-09T13:15:22;10002050.0;;;33.54;24.83789
53089;BME280;38968;47.696;17.540;2022-09-09T13:20:18;10002070.0;;;32.45;26.33496
53089;BME280;38968;47.696;17.540;2022-09-09T13:25:26;10000870.0;;;32.13;25.29688
53089;BME280;38968;47.696;17.540;2022-09-09T13:30:32;10001400.0;;;31.54;26.34375
53089;BME280;38968;47.696;17.540;2022-09-09T13:35:23;10001270.0;;;30.79;25.87598
53089;BME280;38968;47.696;17.540;2022-09-09T13:40:19;9999409;;;30.94;26.49023
53089;BME280;38968;47.696;17.540;2022-09-09T13:45:19;9998366;;;30.45;27.26074
53089;BME280;38968;47.696;17.540;2022-09-09T13:50:25;9997216;;;30.25;28.60352
53089;BME280;38968;47.696;17.540;2022-09-09T13:55:17;9996420;;;30.42;28.49316
53089;BME280;38968;47.696;17.540;2022-09-09T14:00:17;9996012;;;29.83;28.00879
53089;BME280;38968;47.696;17.540;2022-09-09T14:05:18;9993148;;;29.82;28.39453
53089;BME280;38968;47.696;17.540;2022-09-09T14:10:17;9992994;;;29.79;28.58594
53089;BME280;38968;47.696;17.540;2022-09-09T14:15:17;9994562;;;29.66;29.06055
53089;BME280;38968;47.696;17.540;2022-09-09T14:20:18;9995868;;;29.51;29.47461
53089;BME280;38968;47.696;17.540;2022-09-09T14:25:17;9996364;;;29.65;29.49512
53089;BME280;38968;47.696;17.540;2022-09-09T14:30:17;9996978;;;29.85;29.77344
53089;BME280;38968;47.696;17.540;2022-09-09T14:35:17;9996467;;;29.82;29.65137
53089;BME280;38968;47.696;17.540;2022-09-09T14:40:18;9998030;;;29.32;29.46191
53089;BME280;38968;47.696;17.540;2022-09-09T14:45:17;9997406;;;29.31;29.56934
53089;BME280;38968;47.696;17.540;2022-09-09T14:50:17;9997339;;;29.1;29.79688
53089;BME280;38968;47.696;17.540;2022-09-09T14:55:16;9997233;;;29.4;29.04395
53089;BME280;38968;47.696;17.540;2022-09-09T15:00:17;9996958;;;29.12;30.79883
53089;BME280;38968;47.696;17.540;2022-09-09T15:05:16;9996455;;;29.37;30.97168
53089;BME280;38968;47.696;17.540;2022-09-09T15:10:17;9994884;;;29.69;31.74219
53089;BME280;38968;47.696;17.540;2022-09-09T15:15:16;9995490;;;30.09;30.87598
53089;BME280;38968;47.696;17.540;2022-09-09T15:20:16;9996502;;;29.69;30.94629
53089;BME280;38968;47.696;17.540;2022-09-09T15:25:16;9995455;;;29.66;31.89746
53089;BME280;38968;47.696;17.540;2022-09-09T15:30:17;9994962;;;29.52;32.01953
53089;BME280;38968;47.696;17.540;2022-09-09T15:35:16;9996527;;;29.76;31.96387
53089;BME280;38968;47.696;17.540;2022-09-09T15:40:16;9996277;;;29.65;31.94434
53089;BME280;38968;47.696;17.540;2022-09-09T15:45:16;9996963;;;29.4;32.45703
53089;BME280;38968;47.696;17.540;2022-09-09T15:50:16;9996852;;;29.33;32.29492
53089;BME280;38968;47.696;17.540;2022-09-09T15:55:16;9997180;;;29.26;32.72559
53089;BME280;38968;47.696;17.540;2022-09-09T16:00:16;9995611;;;29.12;33.07617
53089;BME280;38968;47.696;17.540;2022-09-09T16:05:16;9995600;;;28.94;33.0625
53089;BME280;38968;47.696;17.540;2022-09-09T16:10:16;9995839;;;28.88;33.51563
53089;BME280;38968;47.696;17.540;2022-09-09T16:15:16;9995116;;;28.88;33.17969
53089;BME280;38968;47.696;17.540;2022-09-09T16:20:16;9995058;;;28.85;33.10449
53089;BME280;38968;47.696;17.540;2022-09-09T16:25:16;9996617;;;28.71;33.40723
53089;BME280;38968;47.696;17.540;2022-09-09T16:30:16;9996657;;;28.38;33.49023
53089;BME280;38968;47.696;17.540;2022-09-09T16:35:16;9998058;;;28.32;34.5918
53089;BME280;38968;47.696;17.540;2022-09-09T16:40:16;9998031;;;27.94;36.36426
53089;BME280;38968;47.696;17.540;2022-09-09T16:45:16;9998893;;;27.88;37.53516
53089;BME280;38968;47.696;17.540;2022-09-09T16:50:16;9998778;;;27.81;38.12891
53089;BME280;38968;47.696;17.540;2022-09-09T16:55:16;9999126;;;27.72;37.89355
53089;BME280;38968;47.696;17.540;2022-09-09T17:00:16;9999129;;;27.3;39.05664
53089;BME280;38968;47.696;17.540;2022-09-09T17:05:16;9999436;;;27.47;39.42969
53089;BME280;38968;47.696;17.540;2022-09-09T17:10:16;9999362;;;27.45;39.90723
53089;BME280;38968;47.696;17.540;2022-09-09T17:15:16;9999450;;;27.24;40.53516
53089;BME280;38968;47.696;17.540;2022-09-09T17:20:16;9999070;;;27.06;40.19531
53089;BME280;38968;47.696;17.540;2022-09-09T17:25:16;9999628;;;27.03;40.9707
53089;BME280;38968;47.696;17.540;2022-09-09T17:30:16;9999514;;;26.63;41.7959
53089;BME280;38968;47.696;17.540;2022-09-09T17:35:16;10000300.0;;;26.22;42.6875
53089;BME280;38968;47.696;17.540;2022-09-09T17:40:16;10000280.0;;;26.25;43.43066
53089;BME280;38968;47.696;17.540;2022-09-09T17:45:16;10001420.0;;;26.04;43.19531
53089;BME280;38968;47.696;17.540;2022-09-09T17:50:16;10001410.0;;;26.17;42.63574
53089;BME280;38968;47.696;17.540;2022-09-09T17:55:16;10001430.0;;;26.25;43.04883
53089;BME280;38968;47.696;17.540;2022-09-09T18:00:17;10001580.0;;;26.07;43.72266
53089;BME280;38968;47.696;17.540;2022-09-09T18:05:16;10001280.0;;;26.12;44.45508
53089;BME280;38968;47.696;17.540;2022-09-09T18:10:16;10001850.0;;;26.07;45.07031
53089;BME280;38968;47.696;17.540;2022-09-09T18:15:16;10002690.0;;;25.69;45.75977
53089;BME280;38968;47.696;17.540;2022-09-09T18:20:16;10003150.0;;;25.67;45.4707
53089;BME280;38968;47.696;17.540;2022-09-09T18:25:16;10002180.0;;;25.42;46.01758
53089;BME280;38968;47.696;17.540;2022-09-09T18:30:16;10002160.0;;;25.34;45.9502
53089;BME280;38968;47.696;17.540;2022-09-09T18:35:16;10002130.0;;;25.37;46.16699
53089;BME280;38968;47.696;17.540;2022-09-09T18:40:16;10003040.0;;;25.12;46.65234
53089;BME280;38968;47.696;17.540;2022-09-09T18:45:16;10002520.0;;;25.33;46.36426
53089;BME280;38968;47.696;17.540;2022-09-09T18:50:16;10003350.0;;;25.29;46.93262
53089;BME280;38968;47.696;17.540;2022-09-09T18:55:16;10002870.0;;;25.11;48.01758
53089;BME280;38968;47.696;17.540;2022-09-09T19:00:17;10002350.0;;;25.09;47.8623
53089;BME280;38968;47.696;17.540;2022-09-09T19:05:16;10001730.0;;;25.09;48.15918
53089;BME280;38968;47.696;17.540;2022-09-09T19:10:16;10002030.0;;;25.15;47.82031
53089;BME280;38968;47.696;17.540;2022-09-09T19:15:16;10002070.0;;;24.98;48.50391
53089;BME280;38968;47.696;17.540;2022-09-09T19:20:16;10000840.0;;;24.95;48.34668
53089;BME280;38968;47.696;17.540;2022-09-09T19:25:16;10000400.0;;;25.07;48.33496
53089;BME280;38968;47.696;17.540;2022-09-09T19:30:16;10001490.0;;;24.93;48.19043
53089;BME280;38968;47.696;17.540;2022-09-09T19:35:16;10000840.0;;;24.36;49.44531
53089;BME280;38968;47.696;17.540;2022-09-09T19:40:16;10000300.0;;;24.6;49.53223
53089;BME280;38968;47.696;17.540;2022-09-09T19:45:16;10000540.0;;;24.76;48.99023
53089;BME280;38968;47.696;17.540;2022-09-09T19:50:16;10000330.0;;;24.81;48.87793
53089;BME280;38968;47.696;17.540;2022-09-09T19:55:16;10000210.0;;;24.85;50.11719
53089;BME280;38968;47.696;17.540;2022-09-09T20:00:16;10000570.0;;;24.84;50.93555
53089;BME280;38968;47.696;17.540;2022-09-09T20:05:16;10000480.0;;;24.85;52.38379
53089;BME280;38968;47.696;17.540;2022-09-09T20:10:16;10001720.0;;;24.62;52.46387
53089;BME280;38968;47.696;17.540;2022-09-09T20:15:16;10002060.0;;;24.4;52.35547
53089;BME280;38968;47.696;17.540;2022-09-09T20:20:16;10002610.0;;;24.24;51.13965
53089;BME280;38968;47.696;17.540;2022-09-09T20:25:16;10002880.0;;;24.24;50.12012
53089;BME280;38968;47.696;17.540;2022-09-09T20:30:16;10003680.0;;;24.12;50.24902
53089;BME280;38968;47.696;17.540;2022-09-09T20:35:16;10005020.0;;;23.99;50.48242
53089;BME280;38968;47.696;17.540;2022-09-09T20:40:16;10005080.0;;;23.66;51.66504
53089;BME280;38968;47.696;17.540;2022-09-09T20:45:16;10005220.0;;;23.84;51.30762
53089;BME280;38968;47.696;17.540;2022-09-09T20:50:16;10006720.0;;;23.85;51.22461
53089;BME280;38968;47.696;17.540;2022-09-09T20:55:16;10007160.0;;;23.74;51.41406
53089;BME280;38968;47.696;17.540;2022-09-09T21:00:17;10007340.0;;;23.6;52.21484
53089;BME280;38968;47.696;17.540;2022-09-09T21:05:16;10008090.0;;;23.55;52.375
53089;BME280;38968;47.696;17.540;2022-09-09T21:10:16;10008340.0;;;23.31;53.32715
53089;BME280;38968;47.696;17.540;2022-09-09T21:15:16;10010100.0;;;23.21;54.02441
53089;BME280;38968;47.696;17.540;2022-09-09T21:20:16;10011220.0;;;22.85;55.66797
53089;BME280;38968;47.696;17.540;2022-09-09T21:25:16;10010770.0;;;22.6;56.54492
53089;BME280;38968;47.696;17.540;2022-09-09T21:30:16;10010600.0;;;22.43;57.18359
53089;BME280;38968;47.696;17.540;2022-09-09T21:35:16;10009150.0;;;21.92;60.63574
53089;BME280;38968;47.696;17.540;2022-09-09T21:40:16;10009690.0;;;21.76;62.69336
53089;BME280;38968;47.696;17.540;2022-09-09T21:45:16;10010080.0;;;21.7;62.95605
53089;BME280;38968;47.696;17.540;2022-09-09T21:50:16;10009200.0;;;21.54;63.16797
53089;BME280;38968;47.696;17.540;2022-09-09T21:55:16;10008710.0;;;21.46;62.71191
53089;BME280;38968;47.696;17.540;2022-09-09T22:00:16;10010000.0;;;21.54;62.09961
53089;BME280;38968;47.696;17.540;2022-09-09T22:05:16;10009610.0;;;21.45;62.52148
53089;BME280;38968;47.696;17.540;2022-09-09T22:10:16;10008110.0;;;21.44;61.76855
53089;BME280;38968;47.696;17.540;2022-09-09T22:15:16;10008410.0;;;21.22;63.68555
53089;BME280;38968;47.696;17.540;2022-09-09T22:20:16;10008550.0;;;21.28;63.10645
53089;BME280;38968;47.696;17.540;2022-09-09T22:25:16;10009110.0;;;21.41;62.31543
53089;BME280;38968;47.696;17.540;2022-09-09T22:30:17;10008320.0;;;21.23;62.88965
53089;BME280;38968;47.696;17.540;2022-09-09T22:35:16;10007650.0;;;21.16;64.01855
53089;BME280;38968;47.696;17.540;2022-09-09T22:40:17;10007710.0;;;21.05;64.40137
53089;BME280;38968;47.696;17.540;2022-09-09T22:45:16;10008970.0;;;21.18;63.26855
53089;BME280;38968;47.696;17.540;2022-09-09T22:50:16;10008880.0;;;21.03;63.54199
53089;BME280;38968;47.696;17.540;2022-09-09T22:55:16;10009700.0;;;20.84;64.41602
53089;BME280;38968;47.696;17.540;2022-09-09T23:00:16;10008760.0;;;20.93;64.05371
53089;BME280;38968;47.696;17.540;2022-09-09T23:05:17;10009770.0;;;20.88;64.09375
53089;BME280;38968;47.696;17.540;2022-09-09T23:10:16;10009490.0;;;20.73;64.89258
53089;BME280;38968;47.696;17.540;2022-09-09T23:15:16;10008610.0;;;20.57;65.12695
53089;BME280;38968;47.696;17.540;2022-09-09T23:20:17;10009750.0;;;20.42;65.93457
53089;BME280;38968;47.696;17.540;2022-09-09T23:25:16;10009410.0;;;20.56;64.21191
53089;BME280;38968;47.696;17.540;2022-09-09T23:30:16;10008830.0;;;20.49;64.5293
53089;BME280;38968;47.696;17.540;2022-09-09T23:35:16;10010000.0;;;20.46;63.60059
53089;BME280;38968;47.696;17.540;2022-09-09T23:40:16;10009600.0;;;20.38;63.08594
53089;BME280;38968;47.696;17.540;2022-09-09T23:45:16;10009210.0;;;20.29;63.53027
53089;BME280;38968;47.696;17.540;2022-09-09T23:50:16;10009520.0;;;20.36;62.83594
53089;BME280;38968;47.696;17.540;2022-09-09T23:55:16;10009870.0;;;20.36;62.09961
